sensor_id;sensor_type;location;lat;lon;timestamp;P1;durP1;ratioP1;P2;durP2;ratioP2
17228;SDS011;8731;50.364;8.958;2023-01-26T00:00:22;16.67;;;10.53;;
17228;SDS011;8731;50.364;8.958;2023-01-26T00:04:46;16.20;;;11.63;;
17228;SDS011;8731;50.364;8.958;2023-01-26T00:09:10;19.60;;;11.80;;
17228;SDS011;8731;50.364;8.958;2023-01-26T00:13:34;18.20;;;11.60;;
17228;SDS011;8731;50.364;8.958;2023-01-26T00:17:58;17.37;;;11.07;;
17228;SDS011;8731;50.364;8.958;2023-01-26T00:22:22;15.43;;;10.30;;
17228;SDS011;8731;50.364;8.958;2023-01-26T00:26:46;13.67;;;9.43;;
17228;SDS011;8731;50.364;8.958;2023-01-26T00:31:09;14.23;;;9.77;;
17228;SDS011;8731;50.364;8.958;2023-01-26T00:35:34;15.50;;;10.07;;
17228;SDS011;8731;50.364;8.958;2023-01-26T00:39:58;13.03;;;9.13;;
17228;SDS011;8731;50.364;8.958;2023-01-26T00:44:20;13.37;;;8.63;;
17228;SDS011;8731;50.364;8.958;2023-01-26T00:48:43;17.50;;;9.93;;
17228;SDS011;8731;50.364;8.958;2023-01-26T00:53:05;16.40;;;11.03;;
17228;SDS011;8731;50.364;8.958;2023-01-26T00:57:28;16.30;;;11.10;;
17228;SDS011;8731;50.364;8.958;2023-01-26T01:01:51;18.63;;;11.70;;
17228;SDS011;8731;50.364;8.958;2023-01-26T01:06:13;17.27;;;12.43;;
17228;SDS011;8731;50.364;8.958;2023-01-26T01:10:36;19.13;;;12.30;;
17228;SDS011;8731;50.364;8.958;2023-01-26T01:14:59;16.40;;;11.40;;
17228;SDS011;8731;50.364;8.958;2023-01-26T01:19:22;18.23;;;11.20;;
17228;SDS011;8731;50.364;8.958;2023-01-26T01:23:44;15.43;;;11.50;;
17228;SDS011;8731;50.364;8.958;2023-01-26T01:28:06;8.50;;;6.80;;
17228;SDS011;8731;50.364;8.958;2023-01-26T01:32:30;13.40;;;8.03;;
17228;SDS011;8731;50.364;8.958;2023-01-26T01:36:53;7.90;;;6.57;;
17228;SDS011;8731;50.364;8.958;2023-01-26T01:41:16;8.77;;;6.67;;
17228;SDS011;8731;50.364;8.958;2023-01-26T01:45:42;8.60;;;6.47;;
17228;SDS011;8731;50.364;8.958;2023-01-26T01:50:08;10.43;;;7.53;;
17228;SDS011;8731;50.364;8.958;2023-01-26T01:54:38;11.03;;;8.10;;
17228;SDS011;8731;50.364;8.958;2023-01-26T01:59:07;10.90;;;7.90;;
17228;SDS011;8731;50.364;8.958;2023-01-26T02:03:32;13.87;;;9.83;;
17228;SDS011;8731;50.364;8.958;2023-01-26T02:07:58;13.53;;;10.47;;
17228;SDS011;8731;50.364;8.958;2023-01-26T02:12:24;15.20;;;10.20;;
17228;SDS011;8731;50.364;8.958;2023-01-26T02:16:50;12.70;;;9.40;;
17228;SDS011;8731;50.364;8.958;2023-01-26T02:21:14;11.17;;;8.73;;
17228;SDS011;8731;50.364;8.958;2023-01-26T02:25:42;9.43;;;7.50;;
17228;SDS011;8731;50.364;8.958;2023-01-26T02:30:19;8.77;;;6.83;;
17228;SDS011;8731;50.364;8.958;2023-01-26T02:34:44;10.43;;;7.53;;
17228;SDS011;8731;50.364;8.958;2023-01-26T02:44:03;9.40;;;6.77;;
17228;SDS011;8731;50.364;8.958;2023-01-26T02:48:30;8.13;;;6.53;;
17228;SDS011;8731;50.364;8.958;2023-01-26T02:53:11;7.37;;;6.20;;
17228;SDS011;8731;50.364;8.958;2023-01-26T02:57:33;8.30;;;6.37;;
17228;SDS011;8731;50.364;8.958;2023-01-26T03:01:57;6.90;;;5.23;;
17228;SDS011;8731;50.364;8.958;2023-01-26T03:06:20;8.60;;;5.83;;
17228;SDS011;8731;50.364;8.958;2023-01-26T03:10:43;7.20;;;4.50;;
17228;SDS011;8731;50.364;8.958;2023-01-26T03:15:07;6.30;;;4.43;;
17228;SDS011;8731;50.364;8.958;2023-01-26T03:19:49;7.03;;;5.07;;
17228;SDS011;8731;50.364;8.958;2023-01-26T03:24:29;4.10;;;3.67;;
17228;SDS011;8731;50.364;8.958;2023-01-26T03:29:09;4.60;;;3.60;;
17228;SDS011;8731;50.364;8.958;2023-01-26T03:33:34;5.30;;;3.97;;
17228;SDS011;8731;50.364;8.958;2023-01-26T03:37:58;5.10;;;4.60;;
17228;SDS011;8731;50.364;8.958;2023-01-26T03:42:33;7.30;;;5.27;;
17228;SDS011;8731;50.364;8.958;2023-01-26T03:47:14;9.30;;;6.50;;
17228;SDS011;8731;50.364;8.958;2023-01-26T03:51:54;9.57;;;7.00;;
17228;SDS011;8731;50.364;8.958;2023-01-26T03:56:36;14.10;;;8.30;;
17228;SDS011;8731;50.364;8.958;2023-01-26T04:01:05;11.20;;;8.27;;
17228;SDS011;8731;50.364;8.958;2023-01-26T04:05:30;12.47;;;8.50;;
17228;SDS011;8731;50.364;8.958;2023-01-26T04:10:10;10.53;;;8.13;;
17228;SDS011;8731;50.364;8.958;2023-01-26T04:14:34;11.73;;;8.53;;
17228;SDS011;8731;50.364;8.958;2023-01-26T04:19:17;10.93;;;8.23;;
17228;SDS011;8731;50.364;8.958;2023-01-26T04:23:57;13.10;;;8.77;;
17228;SDS011;8731;50.364;8.958;2023-01-26T04:28:22;11.27;;;8.17;;
17228;SDS011;8731;50.364;8.958;2023-01-26T04:32:46;12.97;;;8.33;;
17228;SDS011;8731;50.364;8.958;2023-01-26T04:37:11;11.70;;;9.10;;
17228;SDS011;8731;50.364;8.958;2023-01-26T04:41:40;14.80;;;9.47;;
17228;SDS011;8731;50.364;8.958;2023-01-26T04:46:05;12.00;;;9.40;;
17228;SDS011;8731;50.364;8.958;2023-01-26T04:50:33;14.77;;;9.67;;
17228;SDS011;8731;50.364;8.958;2023-01-26T04:54:55;12.40;;;9.67;;
17228;SDS011;8731;50.364;8.958;2023-01-26T04:59:18;12.43;;;8.80;;
17228;SDS011;8731;50.364;8.958;2023-01-26T05:03:41;13.53;;;10.73;;
17228;SDS011;8731;50.364;8.958;2023-01-26T05:08:06;11.23;;;8.83;;
17228;SDS011;8731;50.364;8.958;2023-01-26T05:12:28;14.47;;;9.60;;
17228;SDS011;8731;50.364;8.958;2023-01-26T05:17:06;12.10;;;8.30;;
17228;SDS011;8731;50.364;8.958;2023-01-26T05:21:34;13.77;;;8.93;;
17228;SDS011;8731;50.364;8.958;2023-01-26T05:25:58;11.47;;;8.53;;
17228;SDS011;8731;50.364;8.958;2023-01-26T05:30:22;12.87;;;9.13;;
17228;SDS011;8731;50.364;8.958;2023-01-26T05:34:44;12.70;;;8.80;;
17228;SDS011;8731;50.364;8.958;2023-01-26T05:39:08;14.37;;;10.10;;
17228;SDS011;8731;50.364;8.958;2023-01-26T05:43:31;12.63;;;9.30;;
17228;SDS011;8731;50.364;8.958;2023-01-26T05:48:03;10.77;;;7.83;;
17228;SDS011;8731;50.364;8.958;2023-01-26T05:52:26;11.23;;;8.17;;
17228;SDS011;8731;50.364;8.958;2023-01-26T05:56:48;14.17;;;10.07;;
17228;SDS011;8731;50.364;8.958;2023-01-26T06:01:13;13.90;;;9.77;;
17228;SDS011;8731;50.364;8.958;2023-01-26T06:05:50;12.00;;;8.67;;
17228;SDS011;8731;50.364;8.958;2023-01-26T06:10:33;11.93;;;8.93;;
17228;SDS011;8731;50.364;8.958;2023-01-26T06:15:14;11.67;;;8.73;;
17228;SDS011;8731;50.364;8.958;2023-01-26T06:19:40;18.67;;;12.63;;
17228;SDS011;8731;50.364;8.958;2023-01-26T06:24:02;24.73;;;14.83;;
17228;SDS011;8731;50.364;8.958;2023-01-26T06:28:25;16.37;;;11.43;;
17228;SDS011;8731;50.364;8.958;2023-01-26T06:32:48;10.60;;;8.27;;
17228;SDS011;8731;50.364;8.958;2023-01-26T06:37:12;8.03;;;6.17;;
17228;SDS011;8731;50.364;8.958;2023-01-26T06:41:35;10.77;;;6.70;;
17228;SDS011;8731;50.364;8.958;2023-01-26T06:45:57;6.67;;;5.50;;
17228;SDS011;8731;50.364;8.958;2023-01-26T06:50:22;12.80;;;8.33;;
17228;SDS011;8731;50.364;8.958;2023-01-26T06:54:53;8.60;;;6.53;;
17228;SDS011;8731;50.364;8.958;2023-01-26T06:59:37;10.20;;;7.10;;
17228;SDS011;8731;50.364;8.958;2023-01-26T07:04:24;8.87;;;6.40;;
17228;SDS011;8731;50.364;8.958;2023-01-26T07:08:47;8.27;;;5.50;;
17228;SDS011;8731;50.364;8.958;2023-01-26T07:13:11;6.53;;;5.13;;
17228;SDS011;8731;50.364;8.958;2023-01-26T07:17:33;8.80;;;6.50;;
17228;SDS011;8731;50.364;8.958;2023-01-26T07:21:55;8.00;;;6.37;;
17228;SDS011;8731;50.364;8.958;2023-01-26T07:26:18;7.30;;;6.17;;
17228;SDS011;8731;50.364;8.958;2023-01-26T07:30:42;9.00;;;6.23;;
17228;SDS011;8731;50.364;8.958;2023-01-26T07:35:05;8.90;;;6.67;;
17228;SDS011;8731;50.364;8.958;2023-01-26T07:39:28;8.03;;;6.33;;
17228;SDS011;8731;50.364;8.958;2023-01-26T07:43:50;8.57;;;7.13;;
17228;SDS011;8731;50.364;8.958;2023-01-26T07:48:14;8.13;;;6.43;;
17228;SDS011;8731;50.364;8.958;2023-01-26T07:52:36;8.07;;;6.23;;
17228;SDS011;8731;50.364;8.958;2023-01-26T07:56:58;9.80;;;6.80;;
17228;SDS011;8731;50.364;8.958;2023-01-26T08:01:21;9.10;;;6.80;;
17228;SDS011;8731;50.364;8.958;2023-01-26T08:05:45;8.37;;;6.40;;
17228;SDS011;8731;50.364;8.958;2023-01-26T08:10:08;8.40;;;6.70;;
17228;SDS011;8731;50.364;8.958;2023-01-26T08:14:33;11.90;;;8.30;;
17228;SDS011;8731;50.364;8.958;2023-01-26T08:18:55;11.90;;;8.87;;
17228;SDS011;8731;50.364;8.958;2023-01-26T08:23:19;14.87;;;10.03;;
17228;SDS011;8731;50.364;8.958;2023-01-26T08:27:42;13.83;;;10.30;;
17228;SDS011;8731;50.364;8.958;2023-01-26T08:32:04;13.80;;;10.60;;
17228;SDS011;8731;50.364;8.958;2023-01-26T08:36:28;12.43;;;9.07;;
17228;SDS011;8731;50.364;8.958;2023-01-26T08:40:51;13.23;;;9.80;;
17228;SDS011;8731;50.364;8.958;2023-01-26T08:45:14;11.73;;;9.23;;
17228;SDS011;8731;50.364;8.958;2023-01-26T08:49:36;12.87;;;10.47;;
17228;SDS011;8731;50.364;8.958;2023-01-26T08:53:59;13.50;;;10.67;;
17228;SDS011;8731;50.364;8.958;2023-01-26T08:58:22;13.07;;;9.60;;
17228;SDS011;8731;50.364;8.958;2023-01-26T09:02:45;13.17;;;10.67;;
17228;SDS011;8731;50.364;8.958;2023-01-26T09:07:08;12.33;;;9.67;;
17228;SDS011;8731;50.364;8.958;2023-01-26T09:11:30;13.87;;;9.33;;
17228;SDS011;8731;50.364;8.958;2023-01-26T09:15:54;14.53;;;10.60;;
17228;SDS011;8731;50.364;8.958;2023-01-26T09:20:16;16.00;;;11.93;;
17228;SDS011;8731;50.364;8.958;2023-01-26T09:24:39;15.50;;;11.50;;
17228;SDS011;8731;50.364;8.958;2023-01-26T09:29:02;16.37;;;11.47;;
17228;SDS011;8731;50.364;8.958;2023-01-26T09:33:25;18.30;;;12.43;;
17228;SDS011;8731;50.364;8.958;2023-01-26T09:37:47;17.50;;;12.40;;
17228;SDS011;8731;50.364;8.958;2023-01-26T09:42:22;16.57;;;11.63;;
17228;SDS011;8731;50.364;8.958;2023-01-26T09:47:00;15.33;;;10.80;;
17228;SDS011;8731;50.364;8.958;2023-01-26T09:51:34;16.63;;;11.53;;
17228;SDS011;8731;50.364;8.958;2023-01-26T09:55:59;30.17;;;20.00;;
17228;SDS011;8731;50.364;8.958;2023-01-26T10:00:22;16.57;;;11.47;;
17228;SDS011;8731;50.364;8.958;2023-01-26T10:04:50;17.63;;;11.70;;
17228;SDS011;8731;50.364;8.958;2023-01-26T10:09:23;17.57;;;11.97;;
17228;SDS011;8731;50.364;8.958;2023-01-26T10:13:52;19.03;;;11.50;;
17228;SDS011;8731;50.364;8.958;2023-01-26T10:18:21;15.50;;;11.97;;
17228;SDS011;8731;50.364;8.958;2023-01-26T10:22:49;23.30;;;16.37;;
17228;SDS011;8731;50.364;8.958;2023-01-26T10:27:16;20.17;;;15.17;;
17228;SDS011;8731;50.364;8.958;2023-01-26T10:31:38;19.37;;;14.20;;
17228;SDS011;8731;50.364;8.958;2023-01-26T10:36:01;16.47;;;12.17;;
17228;SDS011;8731;50.364;8.958;2023-01-26T10:40:26;13.03;;;9.73;;
17228;SDS011;8731;50.364;8.958;2023-01-26T10:44:50;15.10;;;10.90;;
17228;SDS011;8731;50.364;8.958;2023-01-26T10:49:13;14.50;;;10.87;;
17228;SDS011;8731;50.364;8.958;2023-01-26T10:53:37;14.20;;;10.27;;
17228;SDS011;8731;50.364;8.958;2023-01-26T10:57:59;14.73;;;11.13;;
17228;SDS011;8731;50.364;8.958;2023-01-26T11:02:24;14.57;;;11.17;;
17228;SDS011;8731;50.364;8.958;2023-01-26T11:06:49;15.97;;;11.17;;
17228;SDS011;8731;50.364;8.958;2023-01-26T11:11:22;13.77;;;10.90;;
17228;SDS011;8731;50.364;8.958;2023-01-26T11:15:47;13.57;;;9.87;;
17228;SDS011;8731;50.364;8.958;2023-01-26T11:20:31;12.93;;;10.03;;
17228;SDS011;8731;50.364;8.958;2023-01-26T11:25:19;17.20;;;11.47;;
17228;SDS011;8731;50.364;8.958;2023-01-26T11:29:56;15.33;;;9.47;;
17228;SDS011;8731;50.364;8.958;2023-01-26T11:34:54;14.03;;;9.90;;
17228;SDS011;8731;50.364;8.958;2023-01-26T11:39:32;13.30;;;8.90;;
17228;SDS011;8731;50.364;8.958;2023-01-26T11:49:02;11.97;;;9.07;;
17228;SDS011;8731;50.364;8.958;2023-01-26T11:53:53;13.17;;;9.83;;
17228;SDS011;8731;50.364;8.958;2023-01-26T11:58:50;14.93;;;10.57;;
17228;SDS011;8731;50.364;8.958;2023-01-26T12:03:20;11.87;;;9.40;;
17228;SDS011;8731;50.364;8.958;2023-01-26T12:07:51;12.97;;;9.47;;
17228;SDS011;8731;50.364;8.958;2023-01-26T12:12:21;11.60;;;9.20;;
17228;SDS011;8731;50.364;8.958;2023-01-26T12:17:10;12.10;;;8.70;;
17228;SDS011;8731;50.364;8.958;2023-01-26T12:21:52;16.13;;;11.17;;
17228;SDS011;8731;50.364;8.958;2023-01-26T12:26:23;13.97;;;10.33;;
17228;SDS011;8731;50.364;8.958;2023-01-26T12:30:55;15.47;;;10.97;;
17228;SDS011;8731;50.364;8.958;2023-01-26T12:35:29;15.07;;;10.33;;
17228;SDS011;8731;50.364;8.958;2023-01-26T12:40:08;14.33;;;10.17;;
17228;SDS011;8731;50.364;8.958;2023-01-26T12:44:45;16.37;;;10.57;;
17228;SDS011;8731;50.364;8.958;2023-01-26T12:49:14;16.23;;;10.63;;
17228;SDS011;8731;50.364;8.958;2023-01-26T12:53:50;17.60;;;12.00;;
17228;SDS011;8731;50.364;8.958;2023-01-26T12:58:20;18.30;;;12.37;;
17228;SDS011;8731;50.364;8.958;2023-01-26T13:02:49;12.83;;;9.83;;
17228;SDS011;8731;50.364;8.958;2023-01-26T13:07:27;12.97;;;9.00;;
17228;SDS011;8731;50.364;8.958;2023-01-26T13:11:56;19.20;;;11.63;;
17228;SDS011;8731;50.364;8.958;2023-01-26T13:16:32;10.93;;;8.53;;
17228;SDS011;8731;50.364;8.958;2023-01-26T13:20:55;11.97;;;8.83;;
17228;SDS011;8731;50.364;8.958;2023-01-26T13:25:18;16.57;;;12.13;;
17228;SDS011;8731;50.364;8.958;2023-01-26T13:29:52;14.37;;;10.67;;
17228;SDS011;8731;50.364;8.958;2023-01-26T13:34:16;13.10;;;9.20;;
17228;SDS011;8731;50.364;8.958;2023-01-26T13:43:33;20.10;;;10.40;;
17228;SDS011;8731;50.364;8.958;2023-01-26T13:48:02;26.77;;;13.57;;
17228;SDS011;8731;50.364;8.958;2023-01-26T13:52:35;20.83;;;12.87;;
17228;SDS011;8731;50.364;8.958;2023-01-26T13:57:03;15.03;;;10.10;;
17228;SDS011;8731;50.364;8.958;2023-01-26T14:01:27;17.57;;;10.30;;
17228;SDS011;8731;50.364;8.958;2023-01-26T14:05:52;15.87;;;9.93;;
17228;SDS011;8731;50.364;8.958;2023-01-26T14:10:17;19.93;;;11.20;;
17228;SDS011;8731;50.364;8.958;2023-01-26T14:14:44;17.77;;;11.70;;
17228;SDS011;8731;50.364;8.958;2023-01-26T14:19:11;16.70;;;10.57;;
17228;SDS011;8731;50.364;8.958;2023-01-26T14:23:37;19.73;;;12.97;;
17228;SDS011;8731;50.364;8.958;2023-01-26T14:28:00;18.63;;;11.03;;
17228;SDS011;8731;50.364;8.958;2023-01-26T14:32:22;17.37;;;10.60;;
17228;SDS011;8731;50.364;8.958;2023-01-26T14:36:48;17.30;;;9.73;;
17228;SDS011;8731;50.364;8.958;2023-01-26T14:41:34;16.87;;;10.37;;
17228;SDS011;8731;50.364;8.958;2023-01-26T14:45:57;20.27;;;12.90;;
17228;SDS011;8731;50.364;8.958;2023-01-26T14:50:27;20.90;;;13.23;;
17228;SDS011;8731;50.364;8.958;2023-01-26T14:54:51;24.20;;;14.13;;
17228;SDS011;8731;50.364;8.958;2023-01-26T14:59:19;20.17;;;11.97;;
17228;SDS011;8731;50.364;8.958;2023-01-26T15:03:47;20.37;;;11.53;;
17228;SDS011;8731;50.364;8.958;2023-01-26T15:08:18;23.57;;;12.33;;
17228;SDS011;8731;50.364;8.958;2023-01-26T15:12:42;20.47;;;11.53;;
17228;SDS011;8731;50.364;8.958;2023-01-26T15:17:09;22.97;;;12.50;;
17228;SDS011;8731;50.364;8.958;2023-01-26T15:21:56;22.77;;;13.20;;
17228;SDS011;8731;50.364;8.958;2023-01-26T15:26:22;24.90;;;13.73;;
17228;SDS011;8731;50.364;8.958;2023-01-26T15:30:49;28.27;;;15.30;;
17228;SDS011;8731;50.364;8.958;2023-01-26T15:35:18;26.30;;;14.73;;
17228;SDS011;8731;50.364;8.958;2023-01-26T15:39:44;26.43;;;14.13;;
17228;SDS011;8731;50.364;8.958;2023-01-26T15:44:09;30.63;;;14.90;;
17228;SDS011;8731;50.364;8.958;2023-01-26T15:48:36;24.57;;;14.50;;
17228;SDS011;8731;50.364;8.958;2023-01-26T15:53:00;27.83;;;15.90;;
17228;SDS011;8731;50.364;8.958;2023-01-26T15:57:22;27.27;;;14.77;;
17228;SDS011;8731;50.364;8.958;2023-01-26T16:01:44;30.37;;;15.93;;
17228;SDS011;8731;50.364;8.958;2023-01-26T16:06:11;28.37;;;16.20;;
17228;SDS011;8731;50.364;8.958;2023-01-26T16:10:44;38.97;;;21.93;;
17228;SDS011;8731;50.364;8.958;2023-01-26T16:15:19;34.67;;;17.83;;
17228;SDS011;8731;50.364;8.958;2023-01-26T16:20:03;75.10;;;37.70;;
17228;SDS011;8731;50.364;8.958;2023-01-26T16:24:26;59.57;;;50.83;;
17228;SDS011;8731;50.364;8.958;2023-01-26T16:28:50;52.63;;;33.40;;
17228;SDS011;8731;50.364;8.958;2023-01-26T16:33:13;33.93;;;20.03;;
17228;SDS011;8731;50.364;8.958;2023-01-26T16:37:40;33.87;;;18.23;;
17228;SDS011;8731;50.364;8.958;2023-01-26T16:42:02;32.53;;;17.43;;
17228;SDS011;8731;50.364;8.958;2023-01-26T16:46:26;34.20;;;17.53;;
17228;SDS011;8731;50.364;8.958;2023-01-26T16:55:16;31.80;;;17.13;;
17228;SDS011;8731;50.364;8.958;2023-01-26T16:59:39;30.57;;;16.43;;
17228;SDS011;8731;50.364;8.958;2023-01-26T17:04:03;27.70;;;15.50;;
17228;SDS011;8731;50.364;8.958;2023-01-26T17:08:25;28.60;;;14.80;;
17228;SDS011;8731;50.364;8.958;2023-01-26T17:12:48;34.83;;;17.53;;
17228;SDS011;8731;50.364;8.958;2023-01-26T17:17:10;31.17;;;16.73;;
17228;SDS011;8731;50.364;8.958;2023-01-26T17:21:34;33.97;;;16.67;;
17228;SDS011;8731;50.364;8.958;2023-01-26T17:25:57;28.13;;;15.47;;
17228;SDS011;8731;50.364;8.958;2023-01-26T17:30:20;29.83;;;16.03;;
17228;SDS011;8731;50.364;8.958;2023-01-26T17:34:42;32.33;;;15.90;;
17228;SDS011;8731;50.364;8.958;2023-01-26T17:39:07;36.73;;;18.90;;
17228;SDS011;8731;50.364;8.958;2023-01-26T17:43:30;43.47;;;27.97;;
17228;SDS011;8731;50.364;8.958;2023-01-26T17:47:53;47.57;;;29.57;;
17228;SDS011;8731;50.364;8.958;2023-01-26T17:52:17;43.00;;;23.77;;
17228;SDS011;8731;50.364;8.958;2023-01-26T17:56:40;38.23;;;23.20;;
17228;SDS011;8731;50.364;8.958;2023-01-26T18:01:03;44.70;;;27.60;;
17228;SDS011;8731;50.364;8.958;2023-01-26T18:05:26;64.93;;;38.57;;
17228;SDS011;8731;50.364;8.958;2023-01-26T18:09:48;73.13;;;50.90;;
17228;SDS011;8731;50.364;8.958;2023-01-26T18:14:12;52.57;;;33.50;;
17228;SDS011;8731;50.364;8.958;2023-01-26T18:18:34;36.50;;;21.53;;
17228;SDS011;8731;50.364;8.958;2023-01-26T18:22:57;31.90;;;18.20;;
17228;SDS011;8731;50.364;8.958;2023-01-26T18:27:20;31.70;;;17.63;;
17228;SDS011;8731;50.364;8.958;2023-01-26T18:31:44;32.93;;;18.87;;
17228;SDS011;8731;50.364;8.958;2023-01-26T18:36:07;31.83;;;19.10;;
17228;SDS011;8731;50.364;8.958;2023-01-26T18:40:32;29.90;;;18.60;;
17228;SDS011;8731;50.364;8.958;2023-01-26T18:44:54;43.77;;;23.63;;
17228;SDS011;8731;50.364;8.958;2023-01-26T18:49:21;31.83;;;17.33;;
17228;SDS011;8731;50.364;8.958;2023-01-26T18:53:43;38.70;;;27.77;;
17228;SDS011;8731;50.364;8.958;2023-01-26T18:58:05;33.73;;;21.03;;
17228;SDS011;8731;50.364;8.958;2023-01-26T19:02:28;29.63;;;18.63;;
17228;SDS011;8731;50.364;8.958;2023-01-26T19:06:53;27.60;;;16.77;;
17228;SDS011;8731;50.364;8.958;2023-01-26T19:11:16;34.17;;;21.20;;
17228;SDS011;8731;50.364;8.958;2023-01-26T19:15:38;28.57;;;15.63;;
17228;SDS011;8731;50.364;8.958;2023-01-26T19:20:04;28.80;;;16.57;;
17228;SDS011;8731;50.364;8.958;2023-01-26T19:24:29;46.57;;;25.27;;
17228;SDS011;8731;50.364;8.958;2023-01-26T19:28:51;38.10;;;19.30;;
17228;SDS011;8731;50.364;8.958;2023-01-26T19:33:15;32.20;;;17.77;;
17228;SDS011;8731;50.364;8.958;2023-01-26T19:37:48;31.20;;;17.90;;
17228;SDS011;8731;50.364;8.958;2023-01-26T19:42:11;30.53;;;16.80;;
17228;SDS011;8731;50.364;8.958;2023-01-26T19:46:33;37.47;;;19.83;;
17228;SDS011;8731;50.364;8.958;2023-01-26T19:50:56;38.70;;;19.47;;
17228;SDS011;8731;50.364;8.958;2023-01-26T19:55:21;45.50;;;23.27;;
17228;SDS011;8731;50.364;8.958;2023-01-26T19:59:44;42.10;;;21.20;;
17228;SDS011;8731;50.364;8.958;2023-01-26T20:04:07;37.17;;;20.17;;
17228;SDS011;8731;50.364;8.958;2023-01-26T20:08:33;38.60;;;20.80;;
17228;SDS011;8731;50.364;8.958;2023-01-26T20:12:55;38.00;;;18.43;;
17228;SDS011;8731;50.364;8.958;2023-01-26T20:17:21;38.33;;;19.43;;
17228;SDS011;8731;50.364;8.958;2023-01-26T20:21:43;38.97;;;22.00;;
17228;SDS011;8731;50.364;8.958;2023-01-26T20:26:06;81.13;;;46.90;;
17228;SDS011;8731;50.364;8.958;2023-01-26T20:30:31;105.80;;;63.47;;
17228;SDS011;8731;50.364;8.958;2023-01-26T20:34:55;47.67;;;27.17;;
17228;SDS011;8731;50.364;8.958;2023-01-26T20:39:18;37.47;;;20.57;;
17228;SDS011;8731;50.364;8.958;2023-01-26T20:43:44;30.70;;;17.30;;
17228;SDS011;8731;50.364;8.958;2023-01-26T20:48:06;31.77;;;17.47;;
17228;SDS011;8731;50.364;8.958;2023-01-26T20:52:30;33.23;;;17.50;;
17228;SDS011;8731;50.364;8.958;2023-01-26T20:56:52;33.57;;;18.10;;
17228;SDS011;8731;50.364;8.958;2023-01-26T21:01:15;35.87;;;18.73;;
17228;SDS011;8731;50.364;8.958;2023-01-26T21:05:38;31.47;;;17.37;;
17228;SDS011;8731;50.364;8.958;2023-01-26T21:10:02;38.53;;;21.90;;
17228;SDS011;8731;50.364;8.958;2023-01-26T21:14:25;34.40;;;19.13;;
17228;SDS011;8731;50.364;8.958;2023-01-26T21:18:47;38.07;;;20.40;;
17228;SDS011;8731;50.364;8.958;2023-01-26T21:23:10;32.90;;;17.87;;
17228;SDS011;8731;50.364;8.958;2023-01-26T21:27:34;32.00;;;17.60;;
17228;SDS011;8731;50.364;8.958;2023-01-26T21:31:56;35.77;;;21.13;;
17228;SDS011;8731;50.364;8.958;2023-01-26T21:36:25;34.20;;;19.03;;
17228;SDS011;8731;50.364;8.958;2023-01-26T21:40:56;34.20;;;18.63;;
17228;SDS011;8731;50.364;8.958;2023-01-26T21:45:21;33.40;;;17.53;;
17228;SDS011;8731;50.364;8.958;2023-01-26T21:50:01;32.80;;;18.87;;
17228;SDS011;8731;50.364;8.958;2023-01-26T21:54:23;32.40;;;16.70;;
17228;SDS011;8731;50.364;8.958;2023-01-26T21:58:48;32.97;;;15.90;;
17228;SDS011;8731;50.364;8.958;2023-01-26T22:03:24;30.57;;;15.97;;
17228;SDS011;8731;50.364;8.958;2023-01-26T22:07:46;31.37;;;17.63;;
17228;SDS011;8731;50.364;8.958;2023-01-26T22:12:09;30.77;;;19.70;;
17228;SDS011;8731;50.364;8.958;2023-01-26T22:16:31;29.70;;;16.73;;
17228;SDS011;8731;50.364;8.958;2023-01-26T22:20:55;25.97;;;15.17;;
17228;SDS011;8731;50.364;8.958;2023-01-26T22:25:17;26.33;;;14.67;;
17228;SDS011;8731;50.364;8.958;2023-01-26T22:29:40;26.30;;;15.60;;
17228;SDS011;8731;50.364;8.958;2023-01-26T22:34:02;34.60;;;17.37;;
17228;SDS011;8731;50.364;8.958;2023-01-26T22:38:26;26.37;;;14.27;;
17228;SDS011;8731;50.364;8.958;2023-01-26T22:42:49;28.20;;;14.77;;
17228;SDS011;8731;50.364;8.958;2023-01-26T22:47:12;25.10;;;13.70;;
17228;SDS011;8731;50.364;8.958;2023-01-26T22:51:34;25.17;;;14.17;;
17228;SDS011;8731;50.364;8.958;2023-01-26T22:55:58;26.63;;;14.53;;
17228;SDS011;8731;50.364;8.958;2023-01-26T23:00:21;27.70;;;14.37;;
17228;SDS011;8731;50.364;8.958;2023-01-26T23:04:43;28.10;;;14.53;;
17228;SDS011;8731;50.364;8.958;2023-01-26T23:09:05;26.50;;;14.33;;
17228;SDS011;8731;50.364;8.958;2023-01-26T23:13:29;27.23;;;13.93;;
17228;SDS011;8731;50.364;8.958;2023-01-26T23:17:52;30.37;;;15.40;;
17228;SDS011;8731;50.364;8.958;2023-01-26T23:22:14;25.53;;;14.47;;
17228;SDS011;8731;50.364;8.958;2023-01-26T23:26:36;26.80;;;14.50;;
17228;SDS011;8731;50.364;8.958;2023-01-26T23:31:00;23.43;;;14.20;;
17228;SDS011;8731;50.364;8.958;2023-01-26T23:35:23;22.87;;;14.33;;
17228;SDS011;8731;50.364;8.958;2023-01-26T23:39:45;22.70;;;13.30;;
17228;SDS011;8731;50.364;8.958;2023-01-26T23:44:08;25.63;;;14.77;;
17228;SDS011;8731;50.364;8.958;2023-01-26T23:48:33;27.63;;;14.47;;
17228;SDS011;8731;50.364;8.958;2023-01-26T23:52:55;26.27;;;14.13;;
17228;SDS011;8731;50.364;8.958;2023-01-26T23:57:18;24.37;;;14.00;;
